createdAt,value
2018-06-09T00:01:31.955Z,73.57
2018-06-09T00:04:00.061Z,72.07
2018-06-09T00:06:28.155Z,71.70
2018-06-09T00:08:56.178Z,75.40
2018-06-09T00:11:25.304Z,69.77
2018-06-09T00:13:53.240Z,73.07
2018-06-09T00:16:21.159Z,76.67
2018-06-09T00:18:55.864Z,74.83
2018-06-09T00:21:23.681Z,73.53
2018-06-09T00:23:52.793Z,68.07
2018-06-09T00:26:20.806Z,69.83
2018-06-09T00:28:48.961Z,61.93
2018-06-09T00:31:16.890Z,64.03
2018-06-09T00:33:44.843Z,67.93
2018-06-09T00:36:12.706Z,61.63
2018-06-09T00:38:40.646Z,62.60
2018-06-09T00:41:08.640Z,63.47
2018-06-09T00:43:36.607Z,65.33
2018-06-09T00:46:04.538Z,64.97
2018-06-09T00:48:32.415Z,63.43
2018-06-09T00:51:00.990Z,64.07
2018-06-09T00:53:29.023Z,66.13
2018-06-09T00:56:08.146Z,64.77
2018-06-09T00:58:36.320Z,64.53
2018-06-09T01:01:04.270Z,64.20
2018-06-09T01:03:32.192Z,64.43
2018-06-09T01:06:00.105Z,65.37
2018-06-09T01:08:27.966Z,65.43
2018-06-09T01:10:55.889Z,64.77
2018-06-09T01:13:23.923Z,65.57
2018-06-09T01:15:51.882Z,66.73
2018-06-09T01:18:19.765Z,69.63
2018-06-09T01:20:48.538Z,66.73
2018-06-09T01:23:16.445Z,69.50
2018-06-09T01:25:44.357Z,67.57
2018-06-09T01:28:12.103Z,69.90
2018-06-09T01:30:40.212Z,70.60
2018-06-09T01:33:08.286Z,73.57
2018-06-09T01:35:36.188Z,72.17
2018-06-09T01:38:04.053Z,73.07
2018-06-09T01:40:31.974Z,78.13
2018-06-09T01:43:00.151Z,75.03
2018-06-09T01:45:28.165Z,76.60
2018-06-09T01:47:56.116Z,71.90
2018-06-09T01:50:24.084Z,76.53
2018-06-09T01:52:51.997Z,78.70
2018-06-09T01:55:19.917Z,75.40
2018-06-09T01:57:47.839Z,70.47
2018-06-09T02:00:15.743Z,69.20
2018-06-09T02:02:43.737Z,68.23
2018-06-09T02:05:11.606Z,64.67
2018-06-09T02:07:39.608Z,66.00
2018-06-09T02:10:09.583Z,66.80
2018-06-09T02:12:37.550Z,67.57
2018-06-09T02:15:05.418Z,66.23
2018-06-09T02:17:33.511Z,66.40
2018-06-09T02:20:01.424Z,70.30
2018-06-09T02:22:29.407Z,70.93
2018-06-09T02:24:57.248Z,68.77
2018-06-09T02:27:25.189Z,66.13
2018-06-09T02:29:53.117Z,70.80
2018-06-09T02:32:21.059Z,71.80
2018-06-09T02:34:48.958Z,73.80
2018-06-09T02:37:16.872Z,72.83
2018-06-09T02:39:44.798Z,75.80
2018-06-09T02:42:12.679Z,64.00
2018-06-09T02:44:40.837Z,77.20
2018-06-09T02:47:08.982Z,66.37
2018-06-09T02:49:36.995Z,78.53
2018-06-09T02:52:05.081Z,73.33
2018-06-09T02:54:33.091Z,78.00
2018-06-09T02:57:01.039Z,74.17
2018-06-09T02:59:28.952Z,78.67
2018-06-09T03:01:56.778Z,74.23
2018-06-09T03:04:24.783Z,76.80
2018-06-09T03:06:52.919Z,76.77
2018-06-09T03:09:20.878Z,70.30
2018-06-09T03:11:48.866Z,67.10
2018-06-09T03:14:16.776Z,73.63
2018-06-09T03:16:44.679Z,64.80
2018-06-09T03:19:12.554Z,69.40
2018-06-09T03:21:40.562Z,71.97
2018-06-09T03:24:08.745Z,66.23
2018-06-09T03:26:37.434Z,66.07
2018-06-09T03:29:05.312Z,74.10
2018-06-09T03:31:33.250Z,73.00
2018-06-09T03:34:01.177Z,66.20
2018-06-09T03:36:29.294Z,62.10
2018-06-09T03:38:57.218Z,67.13
2018-06-09T03:41:25.134Z,65.67
2018-06-09T03:43:53.174Z,64.33
2018-06-09T03:46:21.243Z,62.90
2018-06-09T03:48:49.110Z,59.50
2018-06-09T03:51:16.970Z,63.87
2018-06-09T03:53:44.867Z,63.73
2018-06-09T03:56:12.917Z,58.77
2018-06-09T03:58:41.429Z,60.77
2018-06-09T04:01:09.318Z,58.80
2018-06-09T04:03:37.194Z,57.43
2018-06-09T04:06:05.062Z,53.93
2018-06-09T04:08:33.312Z,57.13
2018-06-09T04:11:02.459Z,49.63
2018-06-09T04:13:43.556Z,49.93
2018-06-09T04:16:11.470Z,49.93
2018-06-09T04:18:39.282Z,48.27
2018-06-09T04:21:07.221Z,47.00
2018-06-09T04:23:35.174Z,44.37
2018-06-09T04:26:03.084Z,43.17
2018-06-09T04:28:31.177Z,41.43
2018-06-09T04:31:00.382Z,42.70
2018-06-09T04:33:28.279Z,42.27
2018-06-09T04:35:56.280Z,39.60
2018-06-09T04:38:24.382Z,39.00
2018-06-09T04:40:52.154Z,38.07
2018-06-09T04:43:20.140Z,36.20
2018-06-09T04:45:48.044Z,34.93
2018-06-09T04:48:15.935Z,33.27
2018-06-09T04:50:43.653Z,30.77
2018-06-09T04:53:11.647Z,30.03
2018-06-09T04:55:39.481Z,29.83
2018-06-09T04:58:07.505Z,29.03
2018-06-09T05:00:36.774Z,30.10
2018-06-09T05:03:04.762Z,27.90
2018-06-09T05:05:46.188Z,25.73
2018-06-09T05:08:14.047Z,25.23
2018-06-09T05:11:05.378Z,24.67
2018-06-09T05:13:33.366Z,25.27
2018-06-09T05:16:01.408Z,23.37
2018-06-09T05:18:29.471Z,23.20
2018-06-09T05:20:58.318Z,21.20
2018-06-09T05:23:28.430Z,22.77
2018-06-09T05:26:01.168Z,22.93
2018-06-09T05:28:29.248Z,22.63
2018-06-09T05:31:02.075Z,22.23
2018-06-09T05:33:33.134Z,20.97
2018-06-09T05:36:07.840Z,21.50
2018-06-09T05:38:37.303Z,22.70
2018-06-09T05:41:15.034Z,22.63
2018-06-09T05:43:43.966Z,21.93
2018-06-09T05:46:13.626Z,23.40
2018-06-09T05:48:43.685Z,23.10
2018-06-09T05:51:11.671Z,22.53
2018-06-09T05:53:39.801Z,21.33
2018-06-09T05:56:07.717Z,21.83
2018-06-09T05:58:35.549Z,21.87
2018-06-09T06:01:03.932Z,22.10
2018-06-09T06:03:31.837Z,23.10
2018-06-09T06:05:59.681Z,22.27
2018-06-09T06:08:27.651Z,21.63
2018-06-09T06:10:55.780Z,21.83
2018-06-09T06:13:24.042Z,19.63
2018-06-09T06:15:51.977Z,21.47
2018-06-09T06:18:20.007Z,20.27
2018-06-09T06:20:48.865Z,18.47
2018-06-09T06:23:17.695Z,19.20
2018-06-09T06:25:46.564Z,18.23
2018-06-09T06:28:14.490Z,18.57
2018-06-09T06:30:42.396Z,17.77
2018-06-09T06:33:11.321Z,17.33
2018-06-09T06:35:39.243Z,17.17
2018-06-09T06:38:07.766Z,18.20
2018-06-09T06:40:35.724Z,18.30
2018-06-09T06:43:03.724Z,17.60
2018-06-09T06:45:31.914Z,16.97
2018-06-09T06:47:59.862Z,18.23
2018-06-09T06:50:27.818Z,16.80
2018-06-09T06:52:55.711Z,17.47
2018-06-09T06:55:23.648Z,17.70
2018-06-09T06:57:51.555Z,16.90
2018-06-09T07:00:19.454Z,17.03
2018-06-09T07:02:47.535Z,17.00
2018-06-09T07:05:15.391Z,17.03
2018-06-09T07:07:43.476Z,17.00
2018-06-09T07:10:11.436Z,19.63
2018-06-09T07:12:39.353Z,19.40
2018-06-09T07:15:07.278Z,19.73
2018-06-09T07:17:35.116Z,19.03
2018-06-09T07:20:03.179Z,19.17
2018-06-09T07:22:31.202Z,18.90
2018-06-09T07:24:59.138Z,18.80
2018-06-09T07:27:27.022Z,18.43
2018-06-09T07:29:54.942Z,18.73
2018-06-09T07:32:22.784Z,18.80
2018-06-09T07:34:50.654Z,18.03
2018-06-09T07:37:18.560Z,16.77
2018-06-09T07:39:46.500Z,18.43
2018-06-09T07:42:14.467Z,17.37
2018-06-09T07:44:42.441Z,17.27
2018-06-09T07:47:10.437Z,17.47
2018-06-09T07:49:38.645Z,17.80
2018-06-09T07:52:06.498Z,19.20
2018-06-09T07:54:34.314Z,18.00
2018-06-09T07:57:02.109Z,18.27
2018-06-09T07:59:29.763Z,18.97
2018-06-09T08:01:57.844Z,19.27
2018-06-09T08:04:25.680Z,17.07
2018-06-09T08:06:53.552Z,16.73
2018-06-09T08:09:21.403Z,19.77
2018-06-09T08:11:49.361Z,18.52
2018-06-09T08:14:17.286Z,17.90
2018-06-09T08:16:45.276Z,21.42
2018-06-09T08:19:13.287Z,20.05
2018-06-09T08:21:41.216Z,19.55
2018-06-09T08:24:09.185Z,20.55
2018-06-09T08:26:37.104Z,20.48
2018-06-09T08:29:05.150Z,19.48
2018-06-09T08:31:33.003Z,18.15
2018-06-09T08:34:00.884Z,18.50
2018-06-09T08:36:28.801Z,19.77
2018-06-09T08:38:56.661Z,19.87
2018-06-09T08:41:24.571Z,18.67
2018-06-09T08:43:52.460Z,18.60
2018-06-09T08:46:20.413Z,19.60
2018-06-09T08:48:48.444Z,19.67
2018-06-09T08:51:16.480Z,18.83
2018-06-09T08:53:44.318Z,19.60
2018-06-09T08:56:12.330Z,19.80
2018-06-09T08:58:40.230Z,19.23
2018-06-09T09:01:08.194Z,20.15
2018-06-09T09:03:36.141Z,19.87
2018-06-09T09:06:04.032Z,20.27
2018-06-09T09:08:31.954Z,20.32
2018-06-09T09:10:59.925Z,19.90
2018-06-09T09:13:27.914Z,21.15
2018-06-09T09:15:56.821Z,20.50
2018-06-09T09:18:24.665Z,19.52
2018-06-09T09:20:52.554Z,20.55
2018-06-09T09:23:20.514Z,21.82
2018-06-09T09:25:48.432Z,21.33
2018-06-09T09:28:16.538Z,21.30
2018-06-09T09:30:44.679Z,19.77
2018-06-09T09:33:13.934Z,20.82
2018-06-09T09:35:42.782Z,21.50
2018-06-09T09:38:10.811Z,20.15
2018-06-09T09:40:38.806Z,19.50
2018-06-09T09:43:06.862Z,22.10
2018-06-09T09:45:34.859Z,19.52
2018-06-09T09:48:02.727Z,19.70
2018-06-09T09:50:30.809Z,20.55
2018-06-09T09:52:58.783Z,21.05
2018-06-09T09:55:26.646Z,22.07
2018-06-09T09:57:57.917Z,27.62
2018-06-09T10:00:31.376Z,21.42
2018-06-09T10:03:00.340Z,20.57
2018-06-09T10:05:28.450Z,20.88
2018-06-09T10:07:56.384Z,20.05
2018-06-09T10:10:25.004Z,20.40
2018-06-09T10:12:53.093Z,19.62
2018-06-09T10:15:21.164Z,20.15
2018-06-09T10:17:50.080Z,19.90
2018-06-09T10:20:17.950Z,19.23
2018-06-09T10:22:45.810Z,19.05
2018-06-09T10:25:13.636Z,22.00
2018-06-09T10:27:41.498Z,20.23
2018-06-09T10:30:09.546Z,20.55
2018-06-09T10:32:37.358Z,19.95
2018-06-09T10:35:05.338Z,21.42
2018-06-09T10:37:33.218Z,18.42
2018-06-09T10:40:01.089Z,22.20
2018-06-09T10:42:29.007Z,20.85
2018-06-09T10:44:57.027Z,22.13
2018-06-09T10:47:24.934Z,18.52
2018-06-09T10:49:52.908Z,19.73
2018-06-09T10:52:20.858Z,20.82
2018-06-09T10:54:48.586Z,22.70
2018-06-09T10:57:16.367Z,19.32
2018-06-09T10:59:44.273Z,22.13
2018-06-09T11:02:12.094Z,21.10
2018-06-09T11:04:39.927Z,20.25
2018-06-09T11:07:07.677Z,21.15
2018-06-09T11:09:35.439Z,20.65
2018-06-09T11:12:03.242Z,21.40
2018-06-09T11:14:31.166Z,22.70
2018-06-09T11:16:59.109Z,22.95
2018-06-09T11:19:27.037Z,23.22
2018-06-09T11:21:55.041Z,22.80
2018-06-09T11:24:22.959Z,21.10
2018-06-09T11:26:50.826Z,24.37
2018-06-09T11:29:18.791Z,22.10
2018-06-09T11:31:46.722Z,21.25
2018-06-09T11:34:14.577Z,23.25
2018-06-09T11:36:42.543Z,22.85
2018-06-09T11:39:10.549Z,23.87
2018-06-09T11:41:38.525Z,22.98
2018-06-09T11:44:06.671Z,24.00
2018-06-09T11:46:34.693Z,23.80
2018-06-09T11:49:02.635Z,21.07
2018-06-09T11:51:30.551Z,21.25
2018-06-09T11:53:58.394Z,25.12
2018-06-09T11:56:26.278Z,23.45
2018-06-09T11:58:54.256Z,20.68
2018-06-09T12:01:22.903Z,21.42
2018-06-09T12:03:50.874Z,20.43
2018-06-09T12:06:18.767Z,23.25
2018-06-09T12:08:46.630Z,22.00
2018-06-09T12:11:15.896Z,20.72
2018-06-09T12:13:43.932Z,23.42
2018-06-09T12:16:11.688Z,22.17
2018-06-09T12:18:39.604Z,23.83
2018-06-09T12:21:08.254Z,20.37
2018-06-09T12:23:36.302Z,22.98
2018-06-09T12:26:04.325Z,23.92
2018-06-09T12:28:32.400Z,22.35
2018-06-09T12:31:00.199Z,22.42
2018-06-09T12:33:28.074Z,22.20
2018-06-09T12:35:55.777Z,23.42
2018-06-09T12:38:23.598Z,22.10
2018-06-09T12:40:51.426Z,23.90
2018-06-09T12:43:19.406Z,22.17
2018-06-09T12:45:48.486Z,22.35
2018-06-09T12:48:16.549Z,21.93
2018-06-09T12:50:44.994Z,22.37
2018-06-09T12:53:12.926Z,21.37
2018-06-09T12:55:40.993Z,20.55
2018-06-09T12:58:09.147Z,21.90
2018-06-09T13:00:37.172Z,18.02
2018-06-09T13:03:05.087Z,21.48
2018-06-09T13:05:33.013Z,22.45
2018-06-09T13:08:00.929Z,22.65
2018-06-09T13:10:28.789Z,20.12
2018-06-09T13:12:56.673Z,22.80
2018-06-09T13:15:24.687Z,24.63
2018-06-09T13:17:52.569Z,23.57
2018-06-09T13:20:20.518Z,25.55
2018-06-09T13:22:48.436Z,24.12
2018-06-09T13:25:16.332Z,21.12
2018-06-09T13:27:44.065Z,21.87
2018-06-09T13:30:12.211Z,23.47
2018-06-09T13:32:40.190Z,23.52
2018-06-09T13:35:09.493Z,20.82
2018-06-09T13:37:37.641Z,21.12
2018-06-09T13:40:05.737Z,22.40
2018-06-09T13:42:33.690Z,23.95
2018-06-09T13:45:01.594Z,24.65
2018-06-09T13:47:29.470Z,23.55
2018-06-09T13:49:57.338Z,19.80
2018-06-09T13:52:25.136Z,24.20
2018-06-09T13:54:52.928Z,25.52
2018-06-09T13:57:20.961Z,22.30
2018-06-09T13:59:48.902Z,22.55
2018-06-09T14:02:16.735Z,23.77
2018-06-09T14:04:44.790Z,25.88
2018-06-09T14:07:12.649Z,25.60
2018-06-09T14:09:40.565Z,22.58
2018-06-09T14:12:08.349Z,26.80
2018-06-09T14:14:36.451Z,25.90
2018-06-09T14:17:04.586Z,28.38
2018-06-09T14:19:32.397Z,27.90
2018-06-09T14:22:00.255Z,29.80
2018-06-09T14:24:28.208Z,27.90
2018-06-09T14:26:56.104Z,30.20
2018-06-09T14:29:23.970Z,32.30
2018-06-09T14:31:51.760Z,29.18
2018-06-09T14:34:19.688Z,24.72
2018-06-09T14:36:47.560Z,30.88
2018-06-09T14:39:15.448Z,32.23
2018-06-09T14:41:43.349Z,31.17
2018-06-09T14:44:11.152Z,33.13
2018-06-09T14:46:38.983Z,30.97
2018-06-09T14:49:06.972Z,35.98
2018-06-09T14:51:34.868Z,32.60
2018-06-09T14:54:02.671Z,33.30
2018-06-09T14:56:30.518Z,31.10
2018-06-09T14:58:58.484Z,32.23
2018-06-09T15:01:26.948Z,30.37
2018-06-09T15:03:54.835Z,30.75
2018-06-09T15:06:22.790Z,31.95
2018-06-09T15:08:50.850Z,36.53
2018-06-09T15:11:19.576Z,32.15
2018-06-09T15:13:47.511Z,30.97
2018-06-09T15:16:15.426Z,35.23
2018-06-09T15:18:43.237Z,33.05
2018-06-09T15:21:11.061Z,35.00
2018-06-09T15:23:39.103Z,33.88
2018-06-09T15:26:07.235Z,35.88
2018-06-09T15:28:35.115Z,32.10
2018-06-09T15:31:03.718Z,30.65
2018-06-09T15:33:31.458Z,35.60
2018-06-09T15:35:59.358Z,32.95
2018-06-09T15:38:27.243Z,35.08
2018-06-09T15:40:55.496Z,34.55
2018-06-09T15:43:23.420Z,36.45
2018-06-09T15:45:51.372Z,36.58
2018-06-09T15:48:19.301Z,32.75
2018-06-09T15:50:47.179Z,35.90
2018-06-09T15:53:15.105Z,32.70
2018-06-09T15:55:42.945Z,34.27
2018-06-09T15:58:11.140Z,32.85
2018-06-09T16:00:39.021Z,31.48
2018-06-09T16:03:06.885Z,31.82
2018-06-09T16:05:34.784Z,33.78
2018-06-09T16:08:02.734Z,32.28
2018-06-09T16:10:30.514Z,32.75
2018-06-09T16:12:58.403Z,31.52
2018-06-09T16:15:33.000Z,34.43
2018-06-09T16:18:00.979Z,31.40
2018-06-09T16:20:28.952Z,32.30
2018-06-09T16:22:56.942Z,30.35
2018-06-09T16:25:24.882Z,27.25
2018-06-09T16:27:52.843Z,29.10
2018-06-09T16:30:20.713Z,27.95
2018-06-09T16:32:48.680Z,27.77
2018-06-09T16:35:16.768Z,25.62
2018-06-09T16:37:44.707Z,26.77
2018-06-09T16:40:12.618Z,24.37
2018-06-09T16:42:40.423Z,26.45
2018-06-09T16:45:08.223Z,25.32
2018-06-09T16:47:36.151Z,24.15
2018-06-09T16:50:04.197Z,23.75
2018-06-09T16:52:32.901Z,24.47
2018-06-09T16:55:00.815Z,24.30
2018-06-09T16:57:28.839Z,23.47
2018-06-09T16:59:56.786Z,22.40
2018-06-09T17:02:24.704Z,23.35
2018-06-09T17:04:52.564Z,22.32
2018-06-09T17:07:20.499Z,22.25
2018-06-09T17:09:48.278Z,21.73
2018-06-09T17:12:16.133Z,22.42
2018-06-09T17:14:44.111Z,22.00
2018-06-09T17:17:12.049Z,22.02
2018-06-09T17:19:39.907Z,23.00
2018-06-09T17:22:07.950Z,22.25
2018-06-09T17:24:35.792Z,22.07
2018-06-09T17:27:03.778Z,22.30
2018-06-09T17:29:31.736Z,21.23
2018-06-09T17:31:59.697Z,22.02
2018-06-09T17:34:27.703Z,22.57
2018-06-09T17:36:55.643Z,22.13
2018-06-09T17:39:23.652Z,21.93
2018-06-09T17:41:51.537Z,21.37
2018-06-09T17:44:19.501Z,22.27
2018-06-09T17:46:47.324Z,20.30
2018-06-09T17:49:15.202Z,21.00
2018-06-09T17:51:43.147Z,19.57
2018-06-09T17:54:11.012Z,19.90
2018-06-09T17:56:38.922Z,20.90
2018-06-09T17:59:06.751Z,19.80
2018-06-09T18:01:34.707Z,19.73
2018-06-09T18:04:02.765Z,20.77
2018-06-09T18:06:30.623Z,20.83
2018-06-09T18:08:58.519Z,20.10
2018-06-09T18:11:26.452Z,21.00
2018-06-09T18:13:54.232Z,19.77
2018-06-09T18:16:22.174Z,19.77
2018-06-09T18:18:50.044Z,19.23
2018-06-09T18:21:17.893Z,20.33
2018-06-09T18:23:45.675Z,20.23
2018-06-09T18:26:13.638Z,19.70
2018-06-09T18:28:41.426Z,21.60
2018-06-09T18:31:09.494Z,19.80
2018-06-09T18:33:37.511Z,18.93
2018-06-09T18:36:05.496Z,18.83
2018-06-09T18:38:33.460Z,18.67
2018-06-09T18:41:01.367Z,18.83
2018-06-09T18:43:29.338Z,19.13
2018-06-09T18:45:57.273Z,17.77
2018-06-09T18:48:25.071Z,20.00
2018-06-09T18:50:53.041Z,18.47
2018-06-09T18:53:20.942Z,18.67
2018-06-09T18:55:48.958Z,17.50
2018-06-09T18:58:16.809Z,22.13
2018-06-09T19:00:44.744Z,20.50
2018-06-09T19:03:12.734Z,21.23
2018-06-09T19:05:40.687Z,21.97
2018-06-09T19:08:08.696Z,22.37
2018-06-09T19:10:36.561Z,21.40
2018-06-09T19:13:04.601Z,21.33
2018-06-09T19:15:32.592Z,20.50
2018-06-09T19:18:00.428Z,20.13
2018-06-09T19:20:28.386Z,20.53
2018-06-09T19:22:56.332Z,21.97
2018-06-09T19:25:24.231Z,21.03
2018-06-09T19:27:52.091Z,21.57
2018-06-09T19:30:20.052Z,22.53
2018-06-09T19:32:48.005Z,23.20
2018-06-09T19:35:15.911Z,23.20
2018-06-09T19:37:43.827Z,23.60
2018-06-09T19:40:11.878Z,22.27
2018-06-09T19:42:39.711Z,23.87
2018-06-09T19:45:07.584Z,23.10
2018-06-09T19:47:35.470Z,20.73
2018-06-09T19:50:03.516Z,22.77
2018-06-09T19:52:31.382Z,20.80
2018-06-09T19:54:59.362Z,21.30
2018-06-09T19:57:27.295Z,23.43
2018-06-09T19:59:55.130Z,21.17
2018-06-09T20:02:23.017Z,21.20
2018-06-09T20:04:50.906Z,22.37
2018-06-09T20:07:18.780Z,21.37
2018-06-09T20:09:46.687Z,21.80
2018-06-09T20:12:14.827Z,20.10
2018-06-09T20:14:42.721Z,21.63
2018-06-09T20:17:10.603Z,20.50
2018-06-09T20:19:38.576Z,20.33
2018-06-09T20:22:06.561Z,19.57
2018-06-09T20:24:34.352Z,18.63
2018-06-09T20:27:02.262Z,18.80
2018-06-09T20:29:30.334Z,18.90
2018-06-09T20:31:58.366Z,17.67
2018-06-09T20:34:26.334Z,17.07
2018-06-09T20:36:54.218Z,17.33
2018-06-09T20:39:22.103Z,16.67
2018-06-09T20:41:50.112Z,16.33
2018-06-09T20:44:18.168Z,16.20
2018-06-09T20:46:46.247Z,16.10
2018-06-09T20:49:14.455Z,16.73
2018-06-09T20:51:42.472Z,16.17
2018-06-09T20:54:10.356Z,17.67
2018-06-09T20:56:38.204Z,16.53
2018-06-09T20:59:06.171Z,17.40
2018-06-09T21:01:34.171Z,16.70
2018-06-09T21:04:02.226Z,17.30
2018-06-09T21:06:30.096Z,16.00
2018-06-09T21:08:58.048Z,17.93
2018-06-09T21:11:25.980Z,17.63
2018-06-09T21:13:53.884Z,17.40
2018-06-09T21:16:21.840Z,17.77
2018-06-09T21:18:49.743Z,17.73
2018-06-09T21:21:17.677Z,19.13
2018-06-09T21:23:45.687Z,18.27
2018-06-09T21:26:13.591Z,17.20
2018-06-09T21:28:46.899Z,16.60
2018-06-09T21:31:22.246Z,16.37
2018-06-09T21:34:01.145Z,16.60
2018-06-09T21:36:34.497Z,16.37
2018-06-09T21:39:09.782Z,16.13
2018-06-09T21:41:43.921Z,17.33
2018-06-09T21:44:18.890Z,17.43
2018-06-09T21:46:47.942Z,17.60
2018-06-09T21:49:16.869Z,17.60
2018-06-09T21:51:44.825Z,17.60
2018-06-09T21:54:12.819Z,18.20
2018-06-09T21:56:40.759Z,16.13
2018-06-09T21:59:08.693Z,18.03
2018-06-09T22:01:37.474Z,17.50
2018-06-09T22:04:05.438Z,18.93
2018-06-09T22:06:33.452Z,18.30
2018-06-09T22:09:01.382Z,18.03
2018-06-09T22:11:29.424Z,18.33
2018-06-09T22:13:57.375Z,17.97
2018-06-09T22:16:25.382Z,17.20
2018-06-09T22:18:53.226Z,16.90
2018-06-09T22:21:21.170Z,16.57
2018-06-09T22:23:49.056Z,17.70
2018-06-09T22:26:16.926Z,16.90
2018-06-09T22:28:44.824Z,17.73
2018-06-09T22:31:12.737Z,17.50
2018-06-09T22:33:40.590Z,14.67
2018-06-09T22:36:08.493Z,16.10
2018-06-09T22:38:36.481Z,16.83
2018-06-09T22:41:04.341Z,16.07
2018-06-09T22:43:32.231Z,15.57
2018-06-09T22:46:00.088Z,15.33
2018-06-09T22:48:28.112Z,14.73
2018-06-09T22:50:55.977Z,15.57
2018-06-09T22:53:23.850Z,16.30
2018-06-09T22:55:51.791Z,14.40
2018-06-09T22:58:19.812Z,15.17
2018-06-09T23:00:49.215Z,15.87
2018-06-09T23:03:17.590Z,14.53
2018-06-09T23:05:46.271Z,15.03
2018-06-09T23:08:14.230Z,14.07
2018-06-09T23:10:42.279Z,14.07
2018-06-09T23:13:10.232Z,13.83
2018-06-09T23:15:38.138Z,13.40
2018-06-09T23:18:06.012Z,13.43
2018-06-09T23:20:33.891Z,14.23
2018-06-09T23:23:01.855Z,13.60
2018-06-09T23:25:29.769Z,14.53
2018-06-09T23:27:57.796Z,14.10
2018-06-09T23:30:25.719Z,14.87
2018-06-09T23:32:53.593Z,17.47
2018-06-09T23:35:21.490Z,29.53
2018-06-09T23:37:49.442Z,25.77
2018-06-09T23:40:17.394Z,39.90
2018-06-09T23:42:45.404Z,43.07
2018-06-09T23:45:13.266Z,41.33
2018-06-09T23:47:41.180Z,50.87
2018-06-09T23:50:09.148Z,64.20
2018-06-09T23:52:36.989Z,55.37
2018-06-09T23:55:04.891Z,55.57
2018-06-09T23:57:32.775Z,80.37
